sensor_id;sensor_type;location;lat;lon;timestamp;temperature;humidity
39493;DHT22;25176;51.060;3.720;2022-08-03T00:01:24;23.70;89.10
39493;DHT22;25176;51.060;3.720;2022-08-03T00:03:50;23.50;89.60
39493;DHT22;25176;51.060;3.720;2022-08-03T00:06:15;23.50;90.00
39493;DHT22;25176;51.060;3.720;2022-08-03T00:08:41;23.60;89.90
39493;DHT22;25176;51.060;3.720;2022-08-03T00:11:06;23.70;89.70
39493;DHT22;25176;51.060;3.720;2022-08-03T00:13:32;23.60;89.80
39493;DHT22;25176;51.060;3.720;2022-08-03T00:15:58;23.60;89.80
39493;DHT22;25176;51.060;3.720;2022-08-03T00:18:23;23.40;90.50
39493;DHT22;25176;51.060;3.720;2022-08-03T00:20:49;23.30;90.60
39493;DHT22;25176;51.060;3.720;2022-08-03T00:23:15;23.30;90.70
39493;DHT22;25176;51.060;3.720;2022-08-03T00:25:41;23.20;90.80
39493;DHT22;25176;51.060;3.720;2022-08-03T00:28:07;23.20;90.90
39493;DHT22;25176;51.060;3.720;2022-08-03T00:30:33;23.10;91.40
39493;DHT22;25176;51.060;3.720;2022-08-03T00:32:59;23.10;91.50
39493;DHT22;25176;51.060;3.720;2022-08-03T00:35:25;23.20;91.50
39493;DHT22;25176;51.060;3.720;2022-08-03T00:37:50;23.20;91.60
39493;DHT22;25176;51.060;3.720;2022-08-03T00:40:17;23.20;91.60
39493;DHT22;25176;51.060;3.720;2022-08-03T00:42:58;23.20;91.50
39493;DHT22;25176;51.060;3.720;2022-08-03T00:45:30;23.30;91.50
39493;DHT22;25176;51.060;3.720;2022-08-03T00:47:56;23.30;91.70
39493;DHT22;25176;51.060;3.720;2022-08-03T00:50:23;23.30;91.40
39493;DHT22;25176;51.060;3.720;2022-08-03T00:52:51;23.20;91.60
39493;DHT22;25176;51.060;3.720;2022-08-03T00:55:17;23.20;91.80
39493;DHT22;25176;51.060;3.720;2022-08-03T00:57:43;23.10;91.90
39493;DHT22;25176;51.060;3.720;2022-08-03T01:00:11;23.10;92.10
39493;DHT22;25176;51.060;3.720;2022-08-03T01:02:38;23.00;92.10
39493;DHT22;25176;51.060;3.720;2022-08-03T01:05:04;23.00;92.30
39493;DHT22;25176;51.060;3.720;2022-08-03T01:10:38;23.00;92.50
39493;DHT22;25176;51.060;3.720;2022-08-03T01:13:44;23.00;92.60
39493;DHT22;25176;51.060;3.720;2022-08-03T01:18:59;22.90;92.80
39493;DHT22;25176;51.060;3.720;2022-08-03T01:21:51;22.90;92.90
39493;DHT22;25176;51.060;3.720;2022-08-03T01:30:30;22.90;93.10
39493;DHT22;25176;51.060;3.720;2022-08-03T01:33:05;22.80;93.20
39493;DHT22;25176;51.060;3.720;2022-08-03T01:35:43;22.70;93.50
39493;DHT22;25176;51.060;3.720;2022-08-03T01:38:32;22.70;93.60
39493;DHT22;25176;51.060;3.720;2022-08-03T01:41:03;22.70;93.60
39493;DHT22;25176;51.060;3.720;2022-08-03T01:43:30;22.70;93.70
39493;DHT22;25176;51.060;3.720;2022-08-03T01:45:57;22.60;93.90
39493;DHT22;25176;51.060;3.720;2022-08-03T01:48:23;22.60;93.90
39493;DHT22;25176;51.060;3.720;2022-08-03T01:50:50;22.50;94.00
39493;DHT22;25176;51.060;3.720;2022-08-03T01:53:18;22.60;94.10
39493;DHT22;25176;51.060;3.720;2022-08-03T01:55:49;22.60;94.10
39493;DHT22;25176;51.060;3.720;2022-08-03T01:58:18;22.60;94.00
39493;DHT22;25176;51.060;3.720;2022-08-03T02:00:45;22.60;94.10
39493;DHT22;25176;51.060;3.720;2022-08-03T02:03:12;22.50;94.30
39493;DHT22;25176;51.060;3.720;2022-08-03T02:05:38;22.50;94.30
39493;DHT22;25176;51.060;3.720;2022-08-03T02:08:07;22.50;94.20
39493;DHT22;25176;51.060;3.720;2022-08-03T02:10:34;22.50;94.30
39493;DHT22;25176;51.060;3.720;2022-08-03T02:13:00;22.50;94.40
39493;DHT22;25176;51.060;3.720;2022-08-03T02:15:27;22.60;94.40
39493;DHT22;25176;51.060;3.720;2022-08-03T02:17:54;22.50;94.50
39493;DHT22;25176;51.060;3.720;2022-08-03T02:20:20;22.50;94.70
39493;DHT22;25176;51.060;3.720;2022-08-03T02:22:46;22.40;94.70
39493;DHT22;25176;51.060;3.720;2022-08-03T02:25:14;22.40;94.90
39493;DHT22;25176;51.060;3.720;2022-08-03T02:27:47;22.30;94.90
39493;DHT22;25176;51.060;3.720;2022-08-03T02:30:15;22.40;94.90
39493;DHT22;25176;51.060;3.720;2022-08-03T02:32:44;22.30;94.90
39493;DHT22;25176;51.060;3.720;2022-08-03T02:35:14;22.30;95.00
39493;DHT22;25176;51.060;3.720;2022-08-03T02:37:51;22.20;95.30
39493;DHT22;25176;51.060;3.720;2022-08-03T02:40:19;22.20;95.40
39493;DHT22;25176;51.060;3.720;2022-08-03T02:42:46;22.20;95.40
39493;DHT22;25176;51.060;3.720;2022-08-03T02:45:14;22.00;95.60
39493;DHT22;25176;51.060;3.720;2022-08-03T02:47:41;22.00;95.80
39493;DHT22;25176;51.060;3.720;2022-08-03T02:50:11;21.90;95.80
39493;DHT22;25176;51.060;3.720;2022-08-03T02:52:37;21.90;96.10
39493;DHT22;25176;51.060;3.720;2022-08-03T02:55:06;22.00;96.00
39493;DHT22;25176;51.060;3.720;2022-08-03T02:57:34;22.10;95.80
39493;DHT22;25176;51.060;3.720;2022-08-03T03:00:01;22.00;95.90
39493;DHT22;25176;51.060;3.720;2022-08-03T03:02:27;22.00;95.80
39493;DHT22;25176;51.060;3.720;2022-08-03T03:04:54;22.00;96.10
39493;DHT22;25176;51.060;3.720;2022-08-03T03:07:20;21.90;96.30
39493;DHT22;25176;51.060;3.720;2022-08-03T03:09:47;21.90;96.30
39493;DHT22;25176;51.060;3.720;2022-08-03T03:12:13;21.90;96.30
39493;DHT22;25176;51.060;3.720;2022-08-03T03:14:39;22.00;96.30
39493;DHT22;25176;51.060;3.720;2022-08-03T03:17:06;22.00;96.00
39493;DHT22;25176;51.060;3.720;2022-08-03T03:19:33;22.00;96.20
39493;DHT22;25176;51.060;3.720;2022-08-03T03:22:00;21.90;96.30
39493;DHT22;25176;51.060;3.720;2022-08-03T03:24:29;21.90;96.40
39493;DHT22;25176;51.060;3.720;2022-08-03T03:26:56;22.00;96.40
39493;DHT22;25176;51.060;3.720;2022-08-03T03:29:22;22.00;96.30
39493;DHT22;25176;51.060;3.720;2022-08-03T03:31:48;22.00;96.20
39493;DHT22;25176;51.060;3.720;2022-08-03T03:34:14;21.90;96.20
39493;DHT22;25176;51.060;3.720;2022-08-03T03:36:40;21.90;96.30
39493;DHT22;25176;51.060;3.720;2022-08-03T03:39:06;21.80;96.50
39493;DHT22;25176;51.060;3.720;2022-08-03T03:41:31;21.80;96.60
39493;DHT22;25176;51.060;3.720;2022-08-03T03:43:58;21.80;96.60
39493;DHT22;25176;51.060;3.720;2022-08-03T03:46:23;21.90;96.50
39493;DHT22;25176;51.060;3.720;2022-08-03T03:48:50;21.80;96.60
39493;DHT22;25176;51.060;3.720;2022-08-03T03:51:15;21.70;96.90
39493;DHT22;25176;51.060;3.720;2022-08-03T03:53:56;21.50;97.10
39493;DHT22;25176;51.060;3.720;2022-08-03T03:56:22;21.50;97.30
39493;DHT22;25176;51.060;3.720;2022-08-03T03:58:48;21.50;97.40
39493;DHT22;25176;51.060;3.720;2022-08-03T04:01:14;21.50;97.20
39493;DHT22;25176;51.060;3.720;2022-08-03T04:03:40;21.50;97.30
39493;DHT22;25176;51.060;3.720;2022-08-03T04:06:05;21.50;97.60
39493;DHT22;25176;51.060;3.720;2022-08-03T04:08:49;21.50;97.50
39493;DHT22;25176;51.060;3.720;2022-08-03T04:11:37;21.50;97.50
39493;DHT22;25176;51.060;3.720;2022-08-03T04:14:24;21.50;97.40
39493;DHT22;25176;51.060;3.720;2022-08-03T04:16:56;21.50;97.40
39493;DHT22;25176;51.060;3.720;2022-08-03T04:19:37;21.50;97.40
39493;DHT22;25176;51.060;3.720;2022-08-03T04:22:06;21.50;97.40
39493;DHT22;25176;51.060;3.720;2022-08-03T04:24:39;21.40;97.60
39493;DHT22;25176;51.060;3.720;2022-08-03T04:27:08;21.50;97.50
39493;DHT22;25176;51.060;3.720;2022-08-03T04:29:38;21.40;97.60
39493;DHT22;25176;51.060;3.720;2022-08-03T04:32:04;21.30;97.90
39493;DHT22;25176;51.060;3.720;2022-08-03T04:34:31;21.30;97.90
39493;DHT22;25176;51.060;3.720;2022-08-03T04:37:03;21.40;97.90
39493;DHT22;25176;51.060;3.720;2022-08-03T04:39:31;21.30;97.90
39493;DHT22;25176;51.060;3.720;2022-08-03T04:42:08;21.30;98.00
39493;DHT22;25176;51.060;3.720;2022-08-03T04:44:39;21.30;97.90
39493;DHT22;25176;51.060;3.720;2022-08-03T04:47:05;21.40;97.90
39493;DHT22;25176;51.060;3.720;2022-08-03T04:49:31;21.40;98.00
39493;DHT22;25176;51.060;3.720;2022-08-03T04:51:57;21.50;97.70
39493;DHT22;25176;51.060;3.720;2022-08-03T04:54:23;21.50;97.70
39493;DHT22;25176;51.060;3.720;2022-08-03T04:56:49;21.60;97.50
39493;DHT22;25176;51.060;3.720;2022-08-03T04:59:14;21.60;97.50
39493;DHT22;25176;51.060;3.720;2022-08-03T05:01:42;21.60;97.40
39493;DHT22;25176;51.060;3.720;2022-08-03T05:04:08;21.70;97.50
39493;DHT22;25176;51.060;3.720;2022-08-03T05:06:34;21.60;97.40
39493;DHT22;25176;51.060;3.720;2022-08-03T05:08:59;21.60;97.50
39493;DHT22;25176;51.060;3.720;2022-08-03T05:11:25;21.60;97.60
39493;DHT22;25176;51.060;3.720;2022-08-03T05:13:51;21.60;97.70
39493;DHT22;25176;51.060;3.720;2022-08-03T05:16:17;21.60;97.60
39493;DHT22;25176;51.060;3.720;2022-08-03T05:18:42;21.80;97.10
39493;DHT22;25176;51.060;3.720;2022-08-03T05:21:09;21.80;97.10
39493;DHT22;25176;51.060;3.720;2022-08-03T05:23:35;21.90;96.80
39493;DHT22;25176;51.060;3.720;2022-08-03T05:26:02;21.90;96.60
39493;DHT22;25176;51.060;3.720;2022-08-03T05:28:27;22.00;96.70
39493;DHT22;25176;51.060;3.720;2022-08-03T05:30:53;22.00;96.80
39493;DHT22;25176;51.060;3.720;2022-08-03T05:33:19;22.00;96.80
39493;DHT22;25176;51.060;3.720;2022-08-03T05:35:44;22.00;96.90
39493;DHT22;25176;51.060;3.720;2022-08-03T05:38:10;22.00;96.70
39493;DHT22;25176;51.060;3.720;2022-08-03T05:40:35;22.10;96.80
39493;DHT22;25176;51.060;3.720;2022-08-03T05:43:01;22.30;96.50
39493;DHT22;25176;51.060;3.720;2022-08-03T05:45:26;22.30;96.10
39493;DHT22;25176;51.060;3.720;2022-08-03T05:47:52;22.30;96.30
39493;DHT22;25176;51.060;3.720;2022-08-03T05:50:19;22.10;96.50
39493;DHT22;25176;51.060;3.720;2022-08-03T05:52:44;22.20;96.50
39493;DHT22;25176;51.060;3.720;2022-08-03T05:55:11;22.20;96.40
39493;DHT22;25176;51.060;3.720;2022-08-03T05:57:38;22.20;96.50
39493;DHT22;25176;51.060;3.720;2022-08-03T06:00:06;22.20;96.50
39493;DHT22;25176;51.060;3.720;2022-08-03T06:02:32;22.20;96.50
39493;DHT22;25176;51.060;3.720;2022-08-03T06:04:57;22.20;96.60
39493;DHT22;25176;51.060;3.720;2022-08-03T06:07:23;22.30;96.70
39493;DHT22;25176;51.060;3.720;2022-08-03T06:09:49;22.30;96.50
39493;DHT22;25176;51.060;3.720;2022-08-03T06:12:15;22.40;96.40
39493;DHT22;25176;51.060;3.720;2022-08-03T06:14:40;22.60;96.00
39493;DHT22;25176;51.060;3.720;2022-08-03T06:17:06;22.60;95.90
39493;DHT22;25176;51.060;3.720;2022-08-03T06:19:31;22.60;95.90
39493;DHT22;25176;51.060;3.720;2022-08-03T06:21:57;22.50;96.00
39493;DHT22;25176;51.060;3.720;2022-08-03T06:24:23;22.40;96.10
39493;DHT22;25176;51.060;3.720;2022-08-03T06:26:48;22.50;96.20
39493;DHT22;25176;51.060;3.720;2022-08-03T06:29:14;22.60;95.80
39493;DHT22;25176;51.060;3.720;2022-08-03T06:31:39;22.60;95.90
39493;DHT22;25176;51.060;3.720;2022-08-03T06:34:05;22.70;95.90
39493;DHT22;25176;51.060;3.720;2022-08-03T06:36:31;22.80;95.60
39493;DHT22;25176;51.060;3.720;2022-08-03T06:38:58;22.90;95.40
39493;DHT22;25176;51.060;3.720;2022-08-03T06:41:24;23.00;95.20
39493;DHT22;25176;51.060;3.720;2022-08-03T06:43:50;22.90;95.20
39493;DHT22;25176;51.060;3.720;2022-08-03T06:46:16;23.00;95.20
39493;DHT22;25176;51.060;3.720;2022-08-03T06:48:42;23.00;94.90
39493;DHT22;25176;51.060;3.720;2022-08-03T06:51:07;23.10;95.10
39493;DHT22;25176;51.060;3.720;2022-08-03T06:53:33;23.20;94.80
39493;DHT22;25176;51.060;3.720;2022-08-03T06:55:59;23.50;94.40
39493;DHT22;25176;51.060;3.720;2022-08-03T06:58:24;23.70;94.00
39493;DHT22;25176;51.060;3.720;2022-08-03T07:00:50;23.80;93.90
39493;DHT22;25176;51.060;3.720;2022-08-03T07:03:16;23.80;93.80
39493;DHT22;25176;51.060;3.720;2022-08-03T07:05:42;23.80;93.80
39493;DHT22;25176;51.060;3.720;2022-08-03T07:08:08;23.70;94.00
39493;DHT22;25176;51.060;3.720;2022-08-03T07:10:34;24.10;93.80
39493;DHT22;25176;51.060;3.720;2022-08-03T07:12:59;25.40;92.20
39493;DHT22;25176;51.060;3.720;2022-08-03T07:15:25;27.40;88.50
39493;DHT22;25176;51.060;3.720;2022-08-03T07:17:50;30.20;81.20
39493;DHT22;25176;51.060;3.720;2022-08-03T07:20:16;31.50;72.40
39493;DHT22;25176;51.060;3.720;2022-08-03T07:22:43;31.80;68.40
39493;DHT22;25176;51.060;3.720;2022-08-03T07:25:09;31.60;68.00
39493;DHT22;25176;51.060;3.720;2022-08-03T07:27:35;30.90;67.90
39493;DHT22;25176;51.060;3.720;2022-08-03T07:30:01;31.10;69.00
39493;DHT22;25176;51.060;3.720;2022-08-03T07:32:27;31.90;66.10
39493;DHT22;25176;51.060;3.720;2022-08-03T07:34:55;33.40;63.60
39493;DHT22;25176;51.060;3.720;2022-08-03T07:37:21;35.00;60.60
39493;DHT22;25176;51.060;3.720;2022-08-03T07:39:47;36.20;58.00
39493;DHT22;25176;51.060;3.720;2022-08-03T07:42:13;37.90;54.30
39493;DHT22;25176;51.060;3.720;2022-08-03T07:44:39;38.90;52.10
39493;DHT22;25176;51.060;3.720;2022-08-03T07:47:05;38.80;51.50
39493;DHT22;25176;51.060;3.720;2022-08-03T07:49:30;38.90;51.00
39493;DHT22;25176;51.060;3.720;2022-08-03T07:51:56;39.30;50.50
39493;DHT22;25176;51.060;3.720;2022-08-03T07:54:40;39.70;49.10
39493;DHT22;25176;51.060;3.720;2022-08-03T07:57:06;40.80;48.20
39493;DHT22;25176;51.060;3.720;2022-08-03T07:59:31;41.70;46.90
39493;DHT22;25176;51.060;3.720;2022-08-03T08:01:59;42.20;46.10
39493;DHT22;25176;51.060;3.720;2022-08-03T08:04:25;43.00;45.10
39493;DHT22;25176;51.060;3.720;2022-08-03T08:06:50;43.50;44.60
39493;DHT22;25176;51.060;3.720;2022-08-03T08:09:16;43.80;44.00
39493;DHT22;25176;51.060;3.720;2022-08-03T08:11:41;45.00;43.00
39493;DHT22;25176;51.060;3.720;2022-08-03T08:14:07;44.70;42.80
39493;DHT22;25176;51.060;3.720;2022-08-03T08:16:33;45.60;42.30
39493;DHT22;25176;51.060;3.720;2022-08-03T08:18:59;45.90;42.10
39493;DHT22;25176;51.060;3.720;2022-08-03T08:21:24;44.30;42.20
39493;DHT22;25176;51.060;3.720;2022-08-03T08:23:50;45.10;42.10
39493;DHT22;25176;51.060;3.720;2022-08-03T08:26:15;45.40;41.60
39493;DHT22;25176;51.060;3.720;2022-08-03T08:28:41;45.30;41.50
39493;DHT22;25176;51.060;3.720;2022-08-03T08:31:06;46.30;41.20
39493;DHT22;25176;51.060;3.720;2022-08-03T08:33:32;46.10;40.20
39493;DHT22;25176;51.060;3.720;2022-08-03T08:35:59;45.30;41.10
39493;DHT22;25176;51.060;3.720;2022-08-03T08:38:25;46.10;40.50
39493;DHT22;25176;51.060;3.720;2022-08-03T08:40:53;48.00;40.10
39493;DHT22;25176;51.060;3.720;2022-08-03T08:43:19;48.00;39.10
39493;DHT22;25176;51.060;3.720;2022-08-03T08:45:49;48.30;39.10
39493;DHT22;25176;51.060;3.720;2022-08-03T08:48:21;48.80;38.30
39493;DHT22;25176;51.060;3.720;2022-08-03T08:50:48;48.90;38.20
39493;DHT22;25176;51.060;3.720;2022-08-03T08:53:17;49.90;37.90
39493;DHT22;25176;51.060;3.720;2022-08-03T08:55:45;50.30;37.10
39493;DHT22;25176;51.060;3.720;2022-08-03T08:58:11;50.00;37.10
39493;DHT22;25176;51.060;3.720;2022-08-03T09:00:38;48.70;37.50
39493;DHT22;25176;51.060;3.720;2022-08-03T09:03:04;50.00;37.50
39493;DHT22;25176;51.060;3.720;2022-08-03T09:05:30;50.10;36.60
39493;DHT22;25176;51.060;3.720;2022-08-03T09:07:57;48.10;37.10
39493;DHT22;25176;51.060;3.720;2022-08-03T09:10:23;49.50;37.60
39493;DHT22;25176;51.060;3.720;2022-08-03T09:12:50;50.10;36.90
39493;DHT22;25176;51.060;3.720;2022-08-03T09:15:24;52.00;36.20
39493;DHT22;25176;51.060;3.720;2022-08-03T09:17:52;52.40;35.70
39493;DHT22;25176;51.060;3.720;2022-08-03T09:20:19;52.40;35.50
39493;DHT22;25176;51.060;3.720;2022-08-03T09:25:42;53.60;34.40
39493;DHT22;25176;51.060;3.720;2022-08-03T09:28:12;53.90;34.70
39493;DHT22;25176;51.060;3.720;2022-08-03T09:30:43;55.00;34.10
39493;DHT22;25176;51.060;3.720;2022-08-03T09:33:11;54.10;34.10
39493;DHT22;25176;51.060;3.720;2022-08-03T09:35:44;53.20;34.30
39493;DHT22;25176;51.060;3.720;2022-08-03T09:38:16;52.60;34.20
39493;DHT22;25176;51.060;3.720;2022-08-03T09:40:43;54.20;34.20
39493;DHT22;25176;51.060;3.720;2022-08-03T09:43:09;51.10;34.30
39493;DHT22;25176;51.060;3.720;2022-08-03T09:45:37;53.20;34.30
39493;DHT22;25176;51.060;3.720;2022-08-03T09:48:23;54.10;33.70
39493;DHT22;25176;51.060;3.720;2022-08-03T09:50:53;56.10;33.30
39493;DHT22;25176;51.060;3.720;2022-08-03T09:53:20;56.40;32.50
39493;DHT22;25176;51.060;3.720;2022-08-03T09:55:55;56.20;32.10
39493;DHT22;25176;51.060;3.720;2022-08-03T09:58:23;55.30;32.40
39493;DHT22;25176;51.060;3.720;2022-08-03T10:00:59;55.90;32.20
39493;DHT22;25176;51.060;3.720;2022-08-03T10:03:27;57.30;32.10
39493;DHT22;25176;51.060;3.720;2022-08-03T10:05:54;57.70;31.90
39493;DHT22;25176;51.060;3.720;2022-08-03T10:08:20;57.90;31.40
39493;DHT22;25176;51.060;3.720;2022-08-03T10:10:48;58.00;31.90
39493;DHT22;25176;51.060;3.720;2022-08-03T10:13:19;58.60;31.20
39493;DHT22;25176;51.060;3.720;2022-08-03T10:15:45;59.50;30.80
39493;DHT22;25176;51.060;3.720;2022-08-03T10:18:11;58.20;30.90
39493;DHT22;25176;51.060;3.720;2022-08-03T10:20:44;56.90;31.30
39493;DHT22;25176;51.060;3.720;2022-08-03T10:23:11;58.00;31.30
39493;DHT22;25176;51.060;3.720;2022-08-03T10:25:39;58.00;31.10
39493;DHT22;25176;51.060;3.720;2022-08-03T10:28:07;56.10;31.30
39493;DHT22;25176;51.060;3.720;2022-08-03T10:30:35;55.10;32.00
39493;DHT22;25176;51.060;3.720;2022-08-03T10:33:08;55.60;32.00
39493;DHT22;25176;51.060;3.720;2022-08-03T10:35:38;54.90;31.90
39493;DHT22;25176;51.060;3.720;2022-08-03T10:38:09;55.20;32.00
39493;DHT22;25176;51.060;3.720;2022-08-03T10:40:37;54.60;32.20
39493;DHT22;25176;51.060;3.720;2022-08-03T10:43:17;54.00;32.40
39493;DHT22;25176;51.060;3.720;2022-08-03T10:45:45;54.30;32.50
39493;DHT22;25176;51.060;3.720;2022-08-03T10:48:11;54.20;32.30
39493;DHT22;25176;51.060;3.720;2022-08-03T10:50:37;52.60;33.00
39493;DHT22;25176;51.060;3.720;2022-08-03T10:53:05;50.70;33.60
39493;DHT22;25176;51.060;3.720;2022-08-03T10:55:36;50.60;34.00
39493;DHT22;25176;51.060;3.720;2022-08-03T11:01:07;48.00;34.80
39493;DHT22;25176;51.060;3.720;2022-08-03T11:03:33;47.00;35.70
39493;DHT22;25176;51.060;3.720;2022-08-03T11:06:24;44.80;36.80
39493;DHT22;25176;51.060;3.720;2022-08-03T11:11:34;41.60;40.00
39493;DHT22;25176;51.060;3.720;2022-08-03T11:14:06;40.10;41.00
39493;DHT22;25176;51.060;3.720;2022-08-03T11:16:35;40.00;41.60
39493;DHT22;25176;51.060;3.720;2022-08-03T11:19:06;38.60;43.00
39493;DHT22;25176;51.060;3.720;2022-08-03T11:30:09;36.90;45.20
39493;DHT22;25176;51.060;3.720;2022-08-03T11:40:48;35.80;46.40
39493;DHT22;25176;51.060;3.720;2022-08-03T11:46:06;35.70;46.90
39493;DHT22;25176;51.060;3.720;2022-08-03T11:48:40;35.70;47.00
39493;DHT22;25176;51.060;3.720;2022-08-03T11:51:38;35.80;46.70
39493;DHT22;25176;51.060;3.720;2022-08-03T11:54:07;35.90;46.40
39493;DHT22;25176;51.060;3.720;2022-08-03T11:56:52;35.80;46.90
39493;DHT22;25176;51.060;3.720;2022-08-03T11:59:31;35.50;46.90
39493;DHT22;25176;51.060;3.720;2022-08-03T12:02:08;34.90;47.60
39493;DHT22;25176;51.060;3.720;2022-08-03T12:05:00;35.00;47.90
39493;DHT22;25176;51.060;3.720;2022-08-03T12:07:27;35.00;47.80
39493;DHT22;25176;51.060;3.720;2022-08-03T12:12:37;35.20;47.40
39493;DHT22;25176;51.060;3.720;2022-08-03T12:15:06;35.00;47.50
39493;DHT22;25176;51.060;3.720;2022-08-03T12:17:39;35.10;47.50
39493;DHT22;25176;51.060;3.720;2022-08-03T12:20:07;35.30;47.00
39493;DHT22;25176;51.060;3.720;2022-08-03T12:22:38;35.20;47.30
39493;DHT22;25176;51.060;3.720;2022-08-03T12:25:08;35.20;47.20
39493;DHT22;25176;51.060;3.720;2022-08-03T12:27:34;35.00;47.50
39493;DHT22;25176;51.060;3.720;2022-08-03T12:30:01;34.90;47.70
39493;DHT22;25176;51.060;3.720;2022-08-03T12:32:28;34.90;47.80
39493;DHT22;25176;51.060;3.720;2022-08-03T12:34:55;35.10;47.60
39493;DHT22;25176;51.060;3.720;2022-08-03T12:37:25;35.00;47.90
39493;DHT22;25176;51.060;3.720;2022-08-03T12:39:55;35.00;47.60
39493;DHT22;25176;51.060;3.720;2022-08-03T12:42:28;35.10;47.70
39493;DHT22;25176;51.060;3.720;2022-08-03T12:44:54;35.00;47.40
39493;DHT22;25176;51.060;3.720;2022-08-03T12:47:19;34.70;48.00
39493;DHT22;25176;51.060;3.720;2022-08-03T12:49:46;34.80;47.90
39493;DHT22;25176;51.060;3.720;2022-08-03T12:52:12;34.80;48.30
39493;DHT22;25176;51.060;3.720;2022-08-03T12:54:38;34.80;48.10
39493;DHT22;25176;51.060;3.720;2022-08-03T12:57:11;34.80;48.20
39493;DHT22;25176;51.060;3.720;2022-08-03T12:59:41;34.70;48.00
39493;DHT22;25176;51.060;3.720;2022-08-03T13:02:19;34.70;48.30
39493;DHT22;25176;51.060;3.720;2022-08-03T13:04:46;34.80;48.80
39493;DHT22;25176;51.060;3.720;2022-08-03T13:07:13;34.60;48.40
39493;DHT22;25176;51.060;3.720;2022-08-03T13:09:49;34.60;48.50
39493;DHT22;25176;51.060;3.720;2022-08-03T13:12:16;34.70;48.20
39493;DHT22;25176;51.060;3.720;2022-08-03T13:14:47;34.40;48.80
39493;DHT22;25176;51.060;3.720;2022-08-03T13:17:13;34.20;49.20
39493;DHT22;25176;51.060;3.720;2022-08-03T13:19:41;34.30;49.10
39493;DHT22;25176;51.060;3.720;2022-08-03T13:24:40;34.40;48.90
39493;DHT22;25176;51.060;3.720;2022-08-03T13:27:06;34.30;49.20
39493;DHT22;25176;51.060;3.720;2022-08-03T13:29:33;34.20;49.20
39493;DHT22;25176;51.060;3.720;2022-08-03T13:31:59;34.10;49.20
39493;DHT22;25176;51.060;3.720;2022-08-03T13:34:25;34.30;49.00
39493;DHT22;25176;51.060;3.720;2022-08-03T13:36:51;34.30;49.30
39493;DHT22;25176;51.060;3.720;2022-08-03T13:39:17;34.30;48.90
39493;DHT22;25176;51.060;3.720;2022-08-03T13:41:44;34.40;49.00
39493;DHT22;25176;51.060;3.720;2022-08-03T13:44:10;34.50;49.00
39493;DHT22;25176;51.060;3.720;2022-08-03T13:46:35;34.40;49.00
39493;DHT22;25176;51.060;3.720;2022-08-03T13:49:01;34.40;48.70
39493;DHT22;25176;51.060;3.720;2022-08-03T13:51:26;34.40;48.70
39493;DHT22;25176;51.060;3.720;2022-08-03T13:53:52;34.50;48.50
39493;DHT22;25176;51.060;3.720;2022-08-03T13:56:18;34.70;48.60
39493;DHT22;25176;51.060;3.720;2022-08-03T13:58:43;34.80;48.40
39493;DHT22;25176;51.060;3.720;2022-08-03T14:01:09;34.90;48.40
39493;DHT22;25176;51.060;3.720;2022-08-03T14:03:35;34.90;48.90
39493;DHT22;25176;51.060;3.720;2022-08-03T14:06:01;34.70;48.20
39493;DHT22;25176;51.060;3.720;2022-08-03T14:08:26;34.60;48.70
39493;DHT22;25176;51.060;3.720;2022-08-03T14:10:52;34.20;48.70
39493;DHT22;25176;51.060;3.720;2022-08-03T14:13:18;34.10;48.90
39493;DHT22;25176;51.060;3.720;2022-08-03T14:15:44;34.20;49.40
39493;DHT22;25176;51.060;3.720;2022-08-03T14:18:10;34.10;49.20
39493;DHT22;25176;51.060;3.720;2022-08-03T14:20:35;34.00;49.30
39493;DHT22;25176;51.060;3.720;2022-08-03T14:23:01;34.10;49.40
39493;DHT22;25176;51.060;3.720;2022-08-03T14:25:27;34.30;48.90
39493;DHT22;25176;51.060;3.720;2022-08-03T14:27:52;34.50;48.80
39493;DHT22;25176;51.060;3.720;2022-08-03T14:30:18;34.20;49.00
39493;DHT22;25176;51.060;3.720;2022-08-03T14:32:44;34.40;48.70
39493;DHT22;25176;51.060;3.720;2022-08-03T14:35:09;34.50;48.50
39493;DHT22;25176;51.060;3.720;2022-08-03T14:37:35;34.30;48.70
39493;DHT22;25176;51.060;3.720;2022-08-03T14:40:00;34.10;48.90
39493;DHT22;25176;51.060;3.720;2022-08-03T14:42:26;34.20;49.20
39493;DHT22;25176;51.060;3.720;2022-08-03T14:44:52;34.40;48.60
39493;DHT22;25176;51.060;3.720;2022-08-03T14:47:17;34.40;48.40
39493;DHT22;25176;51.060;3.720;2022-08-03T14:49:43;34.20;48.60
39493;DHT22;25176;51.060;3.720;2022-08-03T14:52:09;34.50;48.40
39493;DHT22;25176;51.060;3.720;2022-08-03T14:54:34;34.60;48.30
39493;DHT22;25176;51.060;3.720;2022-08-03T14:57:00;34.50;48.30
39493;DHT22;25176;51.060;3.720;2022-08-03T14:59:26;34.70;48.30
39493;DHT22;25176;51.060;3.720;2022-08-03T15:01:52;34.60;47.90
39493;DHT22;25176;51.060;3.720;2022-08-03T15:04:18;34.70;47.80
39493;DHT22;25176;51.060;3.720;2022-08-03T15:06:44;34.70;47.60
39493;DHT22;25176;51.060;3.720;2022-08-03T15:09:09;34.90;47.30
39493;DHT22;25176;51.060;3.720;2022-08-03T15:11:35;34.90;47.10
39493;DHT22;25176;51.060;3.720;2022-08-03T15:14:01;35.00;47.10
39493;DHT22;25176;51.060;3.720;2022-08-03T15:16:26;34.90;46.90
39493;DHT22;25176;51.060;3.720;2022-08-03T15:18:52;34.90;47.10
39493;DHT22;25176;51.060;3.720;2022-08-03T15:21:17;34.80;47.20
39493;DHT22;25176;51.060;3.720;2022-08-03T15:23:43;34.70;47.40
39493;DHT22;25176;51.060;3.720;2022-08-03T15:26:09;34.80;47.30
39493;DHT22;25176;51.060;3.720;2022-08-03T15:28:34;34.90;47.10
39493;DHT22;25176;51.060;3.720;2022-08-03T15:31:00;35.10;47.20
39493;DHT22;25176;51.060;3.720;2022-08-03T15:33:26;35.10;47.00
39493;DHT22;25176;51.060;3.720;2022-08-03T15:35:52;34.60;47.40
39493;DHT22;25176;51.060;3.720;2022-08-03T15:38:18;34.40;47.60
39493;DHT22;25176;51.060;3.720;2022-08-03T15:40:44;34.40;48.20
39493;DHT22;25176;51.060;3.720;2022-08-03T15:43:10;34.40;47.90
39493;DHT22;25176;51.060;3.720;2022-08-03T15:45:36;34.60;47.40
39493;DHT22;25176;51.060;3.720;2022-08-03T15:48:01;34.70;48.40
39493;DHT22;25176;51.060;3.720;2022-08-03T15:50:27;34.10;47.60
39493;DHT22;25176;51.060;3.720;2022-08-03T15:52:55;34.20;47.60
39493;DHT22;25176;51.060;3.720;2022-08-03T15:55:21;34.20;47.50
39493;DHT22;25176;51.060;3.720;2022-08-03T15:57:46;34.00;48.20
39493;DHT22;25176;51.060;3.720;2022-08-03T16:00:12;34.20;48.10
39493;DHT22;25176;51.060;3.720;2022-08-03T16:02:38;34.10;47.60
39493;DHT22;25176;51.060;3.720;2022-08-03T16:05:04;34.20;47.70
39493;DHT22;25176;51.060;3.720;2022-08-03T16:07:29;34.20;47.30
39493;DHT22;25176;51.060;3.720;2022-08-03T16:10:12;34.40;47.40
39493;DHT22;25176;51.060;3.720;2022-08-03T16:12:38;34.30;47.40
39493;DHT22;25176;51.060;3.720;2022-08-03T16:15:05;34.40;47.70
39493;DHT22;25176;51.060;3.720;2022-08-03T16:17:30;34.20;47.50
39493;DHT22;25176;51.060;3.720;2022-08-03T16:19:56;34.20;47.70